Aviation Digital Data Service (ADDS)

Output produced by METARs form (1919 UTC 18 June 2019)
found at http://www.aviationweather.gov/metar/data/
 
SAZS 181900Z 29022KT 9999 SCT035 SCT045 07/01 Q1018
TAF SAZS 181700Z 1818/1918 29025G35KT 9999 SCT030 SCT100 TX08/1818Z TN00/1911Z 
     BECMG 1900/1903 29025G30KT 9999 BKN018 
     BECMG 1906/1908 29010KT SCT010 BKN012 
     BECMG 1914/1916 9999 BKN020
       
SABE 181900Z 30011KT 260V330 9999 BKN023 12/09 Q1009 NOSIG
TAF SABE 181700Z 1818/1918 31020G30KT 9999 OVC015 TX14/1918Z TN10/1910Z 
     BECMG 1820/1822 28025G35KT BKN020 
     BECMG 1906/1909 27015G25 KT 9999 SCT020 SCT030 
     BECMG 1913/1914 25015KT CAVOK
       
SADP 181833Z 30016G26KT 9999 BKN027 12/08 Q1009
SAEZ 181900Z 33018KT 9999 SCT023 BKN029 12/09 Q1008 NOSIG
TAF SAEZ 181700Z 1818/1918 32015G25KT 9999 BKN020 OVC030 TX13/1918Z TN07/1910Z 
     TEMPO 1818/1821 29015G35KT 9000 -DZ SCT010 BKN025 
     BECMG 1821/1900 CAVOK 
     BECMG 1903/1906 9999 SCT008 BKN010 
     BECMG 1912/1915 CAVOK
       
SADF 181900Z 29012KT 250V320 9999 BKN020 13/09 Q1009
TAF SADF 181700Z 1818/1918 29015G25KT 9999 OVC015 TX14/1918Z TN07/1912Z 
     BECMG 1820/1822 SCT020 
     BECMG 1902/1904 27015KT CAVOK 
     BECMG 1915/1917 25015KT
       
SAVC 181900Z 27011KT 250V320 CAVOK 13/04 Q1011
TAF SAVC 181700Z 1818/1918 29010KT 9999 FEW020 BKN090 TX13/1819Z TN06/1912Z 
     BECMG 1820/2822 23015G25KT 
     BECMG 1904/1906 25015KT CAVOK
       
SACO 181900Z 04006KT 020V150 CAVOK 17/M01 Q1015 NOSIG
TAF SACO 181700Z 1818/1918 12005KT CAVOK TX20/1918Z TN03/1910Z 
     BECMG 1908/1911 VRB03KT 8000 NSC 
     BECMG 1912/1915 32010KT CAVOK
       
SARC 181900Z 23007KT 9999 BKN015 OVC100 15/12 Q1016
SARF 181900Z 23005KT 7000 -DZ BKN006 OVC013 16/14 Q1015
TAF SARF 181700Z 1818/1918 23005KT 9999 SCT004 OVC015 TX16/1917Z TN12/19110Z 
     TEMPO 1819/1901 7000 -RADZ 
     BECMG 1903/1905 3000 -DZBR BKN015 BKN070
       
SARI 181900Z 36005KT CAVOK 27/15 Q1015
TAF SARI 181700Z 1818/1918 05005KT CAVOK TX19/1918Z TN15/1910Z 
     BECMG 1906/1908 20005KT 3000 -RADZ BKN010
       
SASJ 181900Z 18004KT CAVOK 16/06 Q1017
TAF SASJ 181700Z 1818/1918 05010KT 9999 FEW005 BKN030 TX19/1918Z TN02/1911Z 
     BECMG 1821/1900 30005KT 9999 SCT020 
     BECMG 1908/1910 5000 BR NSC 
     BECMG 1912/1915 02005KT CAVOK
       
SAZM 181900Z 34017KT 9000 SHRA BKN026 11/08 Q1001
TAF SAZM 181700Z 1818/1918 34020KT 9999 BKN020 BKN050 TX14/1818Z TN06/1910Z 
     BECMG 1821/1900 34020G35KT 9999 BKN025 BKN050 
     BECMG 1902/1905 25025G45KT 7000 RADZ 0VC008 
     BECMG 1915/1918 23025G35KT 9999 BKN025 FEW035TCU
       
SAME 181900Z 23003KT CAVOK 15/M03 Q1016
TAF SAME 181700Z 1818/1918 05005KT CAVOK TX16/1820Z TN01/1911Z 
     BECMG 1902/1904 20005KT
       
SAZN 181900Z 25024G44KT CAVOK 15/01 Q1011
TAF SAZN 181700Z 1818/1918 25025G35KT 9999 SCT020 BKN100 TX13/1918Z TN04/1910Z
PEOB30 
     TEMPO 1819/1822 6000 SHRA BKN030 FEW040TCU BKN045 
     BECMG 1822/1901 25020G30KT 9999 BKN020 BKN100 
     BECMG 1906/1908 27015KT BKN012 
     BECMG 1913/1914 26010KT CAVOK
       
SARL 181900Z 27008KT 5000 -RA BKN008 OVC035 14/13 Q1015 RESHRA
SARP 181900Z 23011KT 9999 BKN015 OVC070 21/18 Q1015
TAF SARP 181700Z 1818/1918 25010KT 9999 FEW015 TX19/1918Z TN15/1910Z 
     BECMG 1820/1824 3000 -RADZ SCT005 OVC010
       
SARE 181900Z 20005KT 9999 BKN020 OVC038 14/13 Q1016
TAF SARE 181700Z 1818/1918 23010KT 9999 BKN017 OVC041 TX16/1918Z TN12/1912Z 
     TEMPO 1819/1901 7000 -RADZ OVC007 
     PROB30 1906/1912 3000 BR BKN010 
     BECMG 1915/1917 CAVOK
       
SAOC 181900Z 25009KT CAVOK 16/M04 Q1014
SAWG 181900Z 29008KT CAVOK 05/02 Q1006
TAF SAWG 181700Z 1818/1918 VRB05KT 9999 FEW030 BKN080 TX08/1819Z TN01/1912Z 
     BECMG 1819/1821 23015KT 
     BECMG 1900/1902 27015KT
       
SAWE 181900Z 29009KT 9999 SCT020 OVC100 06/04 Q1002
TAF SAWE 181700Z 1818/1918 29015KT 9999 SCT030 BKN050 TX08/1819Z TN03/1912Z 
     BECMG 1819/1821 25020G30KT BKN020 BKN090 
     BECMG 1906/1908 27025G40KT
       
SAAR 181900Z 25014KT CAVOK 17/03 Q1013
TAF SAAR 181700Z 1818/1918 24015KT CAVOK TX16/1918Z TN10/1910Z 
     BECMG 1820/1822 30010KT 
     BECMG 1913/1914 25010KT CAVOK
       
SASA 181900Z 32003KT CAVOK 16/M07 Q1017
TAF SASA 181700Z 1818/1918 29005KT 9999 FEW010 TX19/1918Z TN02/1911Z 
     BECMG 1908/1910 5000 BR NSC 
     BECMG 1912/1915 02005KT CAVOK
       
SAVT 181736Z 18016KT 6000 -DZBR SCT015 SCT045 11/10 Q1009
SANT 181900Z 09003KT CAVOK 16/05 Q1017
TAF SANT 181700Z 1818/1918 27005KT 9999 FEW030 TX17/1918Z TN05/1911Z 
     BECMG 1819/1821 14005KT 
     BECMG 1908/1910 5000 BR NSC 
     BECMG 1912/1915 02005KT CAVOK
       
SAWH 181900Z 00000KT 9999 BKN048 OVC100 07/03 Q1000
TAF SAWH 181700Z 1818/1918 VRB05KT 9999 FEW030 BKN080 TX07/1819Z TN02/1912Z 
     BECMG 1902/1904 25020G30KT SCT030 BKN070 
     TEMPO 1914/1918 -SHRA BKN030 SCT060
       
SAVV 181530Z 05003KT 1800 DZ OVC006 12/12 Q1001